sensor_id;sensor_type;location;lat;lon;timestamp;P1;durP1;ratioP1;P2;durP2;ratioP2
2602;SDS011;1311;47.966;7.958;2024-03-08T00:00:58;23.87;;;11.50;;
2602;SDS011;1311;47.966;7.958;2024-03-08T00:03:26;22.30;;;10.97;;
2602;SDS011;1311;47.966;7.958;2024-03-08T00:05:54;19.83;;;10.27;;
2602;SDS011;1311;47.966;7.958;2024-03-08T00:08:21;22.90;;;12.53;;
2602;SDS011;1311;47.966;7.958;2024-03-08T00:10:47;21.87;;;10.97;;
2602;SDS011;1311;47.966;7.958;2024-03-08T00:13:14;24.70;;;11.17;;
2602;SDS011;1311;47.966;7.958;2024-03-08T00:15:41;23.30;;;11.27;;
2602;SDS011;1311;47.966;7.958;2024-03-08T00:18:07;26.50;;;12.27;;
2602;SDS011;1311;47.966;7.958;2024-03-08T00:20:36;21.33;;;10.77;;
2602;SDS011;1311;47.966;7.958;2024-03-08T00:23:03;22.27;;;11.80;;
2602;SDS011;1311;47.966;7.958;2024-03-08T00:25:30;20.37;;;11.17;;
2602;SDS011;1311;47.966;7.958;2024-03-08T00:27:57;35.73;;;13.60;;
2602;SDS011;1311;47.966;7.958;2024-03-08T00:30:24;19.80;;;10.40;;
2602;SDS011;1311;47.966;7.958;2024-03-08T00:32:51;23.23;;;11.50;;
2602;SDS011;1311;47.966;7.958;2024-03-08T00:35:18;23.00;;;11.93;;
2602;SDS011;1311;47.966;7.958;2024-03-08T00:37:46;19.90;;;11.07;;
2602;SDS011;1311;47.966;7.958;2024-03-08T00:40:13;19.23;;;10.90;;
2602;SDS011;1311;47.966;7.958;2024-03-08T00:42:40;19.17;;;9.90;;
2602;SDS011;1311;47.966;7.958;2024-03-08T00:45:09;21.53;;;11.57;;
2602;SDS011;1311;47.966;7.958;2024-03-08T00:47:36;25.10;;;13.03;;
2602;SDS011;1311;47.966;7.958;2024-03-08T00:50:03;26.03;;;12.33;;
2602;SDS011;1311;47.966;7.958;2024-03-08T00:52:30;22.87;;;11.87;;
2602;SDS011;1311;47.966;7.958;2024-03-08T00:54:58;22.90;;;10.50;;
2602;SDS011;1311;47.966;7.958;2024-03-08T00:57:25;24.37;;;12.57;;
2602;SDS011;1311;47.966;7.958;2024-03-08T00:59:52;21.80;;;11.50;;
2602;SDS011;1311;47.966;7.958;2024-03-08T01:02:19;23.03;;;12.17;;
2602;SDS011;1311;47.966;7.958;2024-03-08T01:04:48;26.60;;;12.83;;
2602;SDS011;1311;47.966;7.958;2024-03-08T01:07:15;26.17;;;12.10;;
2602;SDS011;1311;47.966;7.958;2024-03-08T01:09:42;24.97;;;11.60;;
2602;SDS011;1311;47.966;7.958;2024-03-08T01:12:10;22.47;;;11.23;;
2602;SDS011;1311;47.966;7.958;2024-03-08T01:14:36;24.30;;;12.73;;
2602;SDS011;1311;47.966;7.958;2024-03-08T01:17:03;23.40;;;11.93;;
2602;SDS011;1311;47.966;7.958;2024-03-08T01:19:30;21.90;;;10.87;;
2602;SDS011;1311;47.966;7.958;2024-03-08T01:21:58;18.40;;;10.47;;
2602;SDS011;1311;47.966;7.958;2024-03-08T01:24:24;23.50;;;11.27;;
2602;SDS011;1311;47.966;7.958;2024-03-08T01:26:51;23.63;;;12.13;;
2602;SDS011;1311;47.966;7.958;2024-03-08T01:29:19;21.83;;;11.43;;
2602;SDS011;1311;47.966;7.958;2024-03-08T01:31:46;23.80;;;11.77;;
2602;SDS011;1311;47.966;7.958;2024-03-08T01:34:13;19.67;;;10.13;;
2602;SDS011;1311;47.966;7.958;2024-03-08T01:36:39;25.43;;;10.90;;
2602;SDS011;1311;47.966;7.958;2024-03-08T01:39:06;24.07;;;11.43;;
2602;SDS011;1311;47.966;7.958;2024-03-08T01:41:33;20.60;;;10.40;;
2602;SDS011;1311;47.966;7.958;2024-03-08T01:44:00;25.70;;;11.77;;
2602;SDS011;1311;47.966;7.958;2024-03-08T01:46:28;21.63;;;10.20;;
2602;SDS011;1311;47.966;7.958;2024-03-08T01:48:56;20.00;;;11.00;;
2602;SDS011;1311;47.966;7.958;2024-03-08T01:51:23;20.50;;;9.73;;
2602;SDS011;1311;47.966;7.958;2024-03-08T01:53:50;18.90;;;10.40;;
2602;SDS011;1311;47.966;7.958;2024-03-08T01:56:16;22.33;;;10.63;;
2602;SDS011;1311;47.966;7.958;2024-03-08T01:58:44;19.70;;;10.33;;
2602;SDS011;1311;47.966;7.958;2024-03-08T02:01:12;20.53;;;10.50;;
2602;SDS011;1311;47.966;7.958;2024-03-08T02:03:41;20.57;;;10.27;;
2602;SDS011;1311;47.966;7.958;2024-03-08T02:06:08;17.03;;;9.60;;
2602;SDS011;1311;47.966;7.958;2024-03-08T02:08:35;21.57;;;9.30;;
2602;SDS011;1311;47.966;7.958;2024-03-08T02:11:03;18.60;;;9.43;;
2602;SDS011;1311;47.966;7.958;2024-03-08T02:13:30;24.70;;;10.77;;
2602;SDS011;1311;47.966;7.958;2024-03-08T02:15:58;18.40;;;9.97;;
2602;SDS011;1311;47.966;7.958;2024-03-08T02:18:26;20.57;;;10.07;;
2602;SDS011;1311;47.966;7.958;2024-03-08T02:20:54;20.93;;;9.97;;
2602;SDS011;1311;47.966;7.958;2024-03-08T02:23:22;20.10;;;10.90;;
2602;SDS011;1311;47.966;7.958;2024-03-08T02:25:49;18.03;;;9.90;;
2602;SDS011;1311;47.966;7.958;2024-03-08T02:28:17;21.00;;;11.00;;
2602;SDS011;1311;47.966;7.958;2024-03-08T02:30:44;20.63;;;9.97;;
2602;SDS011;1311;47.966;7.958;2024-03-08T02:33:13;20.33;;;10.00;;
2602;SDS011;1311;47.966;7.958;2024-03-08T02:35:41;19.77;;;9.80;;
2602;SDS011;1311;47.966;7.958;2024-03-08T02:38:12;24.10;;;11.30;;
2602;SDS011;1311;47.966;7.958;2024-03-08T02:40:41;21.53;;;11.10;;
2602;SDS011;1311;47.966;7.958;2024-03-08T02:43:08;25.17;;;12.40;;
2602;SDS011;1311;47.966;7.958;2024-03-08T02:45:35;22.97;;;11.40;;
2602;SDS011;1311;47.966;7.958;2024-03-08T02:48:01;19.13;;;9.67;;
2602;SDS011;1311;47.966;7.958;2024-03-08T02:50:28;22.60;;;9.87;;
2602;SDS011;1311;47.966;7.958;2024-03-08T02:52:55;21.03;;;10.80;;
2602;SDS011;1311;47.966;7.958;2024-03-08T02:55:23;18.47;;;8.90;;
2602;SDS011;1311;47.966;7.958;2024-03-08T02:57:51;19.10;;;10.00;;
2602;SDS011;1311;47.966;7.958;2024-03-08T03:00:19;19.00;;;10.27;;
2602;SDS011;1311;47.966;7.958;2024-03-08T03:02:48;19.40;;;9.77;;
2602;SDS011;1311;47.966;7.958;2024-03-08T03:05:17;16.00;;;8.70;;
2602;SDS011;1311;47.966;7.958;2024-03-08T03:07:45;14.67;;;7.93;;
2602;SDS011;1311;47.966;7.958;2024-03-08T03:10:11;17.73;;;8.50;;
2602;SDS011;1311;47.966;7.958;2024-03-08T03:12:43;15.10;;;7.80;;
2602;SDS011;1311;47.966;7.958;2024-03-08T03:15:10;18.73;;;9.10;;
2602;SDS011;1311;47.966;7.958;2024-03-08T03:17:37;20.37;;;9.27;;
2602;SDS011;1311;47.966;7.958;2024-03-08T03:20:05;16.03;;;9.20;;
2602;SDS011;1311;47.966;7.958;2024-03-08T03:22:36;17.87;;;8.97;;
2602;SDS011;1311;47.966;7.958;2024-03-08T03:25:03;13.60;;;8.03;;
2602;SDS011;1311;47.966;7.958;2024-03-08T03:27:31;15.37;;;7.90;;
2602;SDS011;1311;47.966;7.958;2024-03-08T03:29:59;18.40;;;8.90;;
2602;SDS011;1311;47.966;7.958;2024-03-08T03:32:46;15.30;;;8.07;;
2602;SDS011;1311;47.966;7.958;2024-03-08T03:35:13;18.93;;;9.10;;
2602;SDS011;1311;47.966;7.958;2024-03-08T03:37:41;20.10;;;9.73;;
2602;SDS011;1311;47.966;7.958;2024-03-08T03:40:10;18.53;;;8.17;;
2602;SDS011;1311;47.966;7.958;2024-03-08T03:42:38;17.80;;;8.43;;
2602;SDS011;1311;47.966;7.958;2024-03-08T03:45:06;12.97;;;7.80;;
2602;SDS011;1311;47.966;7.958;2024-03-08T03:47:35;18.77;;;7.87;;
2602;SDS011;1311;47.966;7.958;2024-03-08T03:50:03;17.77;;;9.23;;
2602;SDS011;1311;47.966;7.958;2024-03-08T03:52:30;13.17;;;7.27;;
2602;SDS011;1311;47.966;7.958;2024-03-08T03:54:57;12.97;;;6.70;;
2602;SDS011;1311;47.966;7.958;2024-03-08T03:57:24;17.07;;;8.77;;
2602;SDS011;1311;47.966;7.958;2024-03-08T03:59:50;18.43;;;8.10;;
2602;SDS011;1311;47.966;7.958;2024-03-08T04:02:18;17.17;;;8.23;;
2602;SDS011;1311;47.966;7.958;2024-03-08T04:04:46;21.00;;;9.37;;
2602;SDS011;1311;47.966;7.958;2024-03-08T04:07:12;17.87;;;7.50;;
2602;SDS011;1311;47.966;7.958;2024-03-08T04:09:39;16.13;;;8.10;;
2602;SDS011;1311;47.966;7.958;2024-03-08T04:12:06;18.60;;;9.40;;
2602;SDS011;1311;47.966;7.958;2024-03-08T04:14:34;19.67;;;9.60;;
2602;SDS011;1311;47.966;7.958;2024-03-08T04:17:01;21.77;;;9.40;;
2602;SDS011;1311;47.966;7.958;2024-03-08T04:19:29;15.57;;;8.50;;
2602;SDS011;1311;47.966;7.958;2024-03-08T04:21:56;14.27;;;7.60;;
2602;SDS011;1311;47.966;7.958;2024-03-08T04:24:23;14.77;;;8.63;;
2602;SDS011;1311;47.966;7.958;2024-03-08T04:26:50;20.80;;;7.73;;
2602;SDS011;1311;47.966;7.958;2024-03-08T04:29:18;14.90;;;7.40;;
2602;SDS011;1311;47.966;7.958;2024-03-08T04:31:44;14.93;;;7.83;;
2602;SDS011;1311;47.966;7.958;2024-03-08T04:34:12;14.63;;;8.07;;
2602;SDS011;1311;47.966;7.958;2024-03-08T04:36:41;17.40;;;8.27;;
2602;SDS011;1311;47.966;7.958;2024-03-08T04:39:07;20.13;;;9.67;;
2602;SDS011;1311;47.966;7.958;2024-03-08T04:41:37;18.53;;;8.70;;
2602;SDS011;1311;47.966;7.958;2024-03-08T04:44:04;13.30;;;8.23;;
2602;SDS011;1311;47.966;7.958;2024-03-08T04:46:32;17.37;;;7.90;;
2602;SDS011;1311;47.966;7.958;2024-03-08T04:49:00;15.17;;;7.70;;
2602;SDS011;1311;47.966;7.958;2024-03-08T04:51:27;21.97;;;9.30;;
2602;SDS011;1311;47.966;7.958;2024-03-08T04:53:55;15.50;;;8.30;;
2602;SDS011;1311;47.966;7.958;2024-03-08T04:56:22;16.50;;;8.80;;
2602;SDS011;1311;47.966;7.958;2024-03-08T04:58:49;18.87;;;9.63;;
2602;SDS011;1311;47.966;7.958;2024-03-08T05:01:16;18.60;;;8.70;;
2602;SDS011;1311;47.966;7.958;2024-03-08T05:03:43;15.97;;;7.77;;
2602;SDS011;1311;47.966;7.958;2024-03-08T05:06:09;14.83;;;7.60;;
2602;SDS011;1311;47.966;7.958;2024-03-08T05:08:36;16.67;;;7.87;;
2602;SDS011;1311;47.966;7.958;2024-03-08T05:11:04;14.50;;;7.50;;
2602;SDS011;1311;47.966;7.958;2024-03-08T05:13:32;14.23;;;6.57;;
2602;SDS011;1311;47.966;7.958;2024-03-08T05:15:59;17.77;;;8.13;;
2602;SDS011;1311;47.966;7.958;2024-03-08T05:18:26;15.93;;;8.20;;
2602;SDS011;1311;47.966;7.958;2024-03-08T05:20:53;12.13;;;6.60;;
2602;SDS011;1311;47.966;7.958;2024-03-08T05:23:20;18.37;;;8.13;;
2602;SDS011;1311;47.966;7.958;2024-03-08T05:25:47;11.70;;;6.53;;
2602;SDS011;1311;47.966;7.958;2024-03-08T05:28:15;12.67;;;7.63;;
2602;SDS011;1311;47.966;7.958;2024-03-08T05:30:42;12.70;;;6.80;;
2602;SDS011;1311;47.966;7.958;2024-03-08T05:33:09;15.43;;;7.03;;
2602;SDS011;1311;47.966;7.958;2024-03-08T05:35:36;11.63;;;5.60;;
2602;SDS011;1311;47.966;7.958;2024-03-08T05:38:03;14.50;;;6.77;;
2602;SDS011;1311;47.966;7.958;2024-03-08T05:40:30;13.70;;;7.67;;
2602;SDS011;1311;47.966;7.958;2024-03-08T05:42:57;47.83;;;18.80;;
2602;SDS011;1311;47.966;7.958;2024-03-08T05:45:26;31.37;;;13.00;;
2602;SDS011;1311;47.966;7.958;2024-03-08T05:47:53;30.40;;;12.23;;
2602;SDS011;1311;47.966;7.958;2024-03-08T05:50:19;36.80;;;12.90;;
2602;SDS011;1311;47.966;7.958;2024-03-08T05:52:47;21.90;;;9.57;;
2602;SDS011;1311;47.966;7.958;2024-03-08T05:55:14;18.07;;;8.37;;
2602;SDS011;1311;47.966;7.958;2024-03-08T05:57:41;20.73;;;9.00;;
2602;SDS011;1311;47.966;7.958;2024-03-08T06:00:09;19.43;;;8.77;;
2602;SDS011;1311;47.966;7.958;2024-03-08T06:02:38;17.47;;;7.33;;
2602;SDS011;1311;47.966;7.958;2024-03-08T06:05:07;15.20;;;7.37;;
2602;SDS011;1311;47.966;7.958;2024-03-08T06:07:34;19.13;;;6.80;;
2602;SDS011;1311;47.966;7.958;2024-03-08T06:10:01;15.80;;;7.10;;
2602;SDS011;1311;47.966;7.958;2024-03-08T06:12:28;17.10;;;7.10;;
2602;SDS011;1311;47.966;7.958;2024-03-08T06:14:58;13.40;;;6.63;;
2602;SDS011;1311;47.966;7.958;2024-03-08T06:17:25;14.10;;;6.90;;
2602;SDS011;1311;47.966;7.958;2024-03-08T06:19:53;14.90;;;8.30;;
2602;SDS011;1311;47.966;7.958;2024-03-08T06:22:20;16.93;;;9.00;;
2602;SDS011;1311;47.966;7.958;2024-03-08T06:24:47;14.30;;;8.37;;
2602;SDS011;1311;47.966;7.958;2024-03-08T06:27:13;14.37;;;8.33;;
2602;SDS011;1311;47.966;7.958;2024-03-08T06:29:40;15.37;;;8.80;;
2602;SDS011;1311;47.966;7.958;2024-03-08T06:32:07;18.73;;;9.80;;
2602;SDS011;1311;47.966;7.958;2024-03-08T06:34:33;15.80;;;8.10;;
2602;SDS011;1311;47.966;7.958;2024-03-08T06:37:01;17.50;;;8.43;;
2602;SDS011;1311;47.966;7.958;2024-03-08T06:39:28;18.50;;;8.23;;
2602;SDS011;1311;47.966;7.958;2024-03-08T06:41:56;14.70;;;8.13;;
2602;SDS011;1311;47.966;7.958;2024-03-08T06:44:23;15.57;;;8.00;;
2602;SDS011;1311;47.966;7.958;2024-03-08T06:46:50;15.27;;;8.20;;
2602;SDS011;1311;47.966;7.958;2024-03-08T06:49:17;17.77;;;9.13;;
2602;SDS011;1311;47.966;7.958;2024-03-08T06:51:44;19.37;;;8.33;;
2602;SDS011;1311;47.966;7.958;2024-03-08T06:54:12;17.37;;;9.03;;
2602;SDS011;1311;47.966;7.958;2024-03-08T06:56:39;12.90;;;7.87;;
2602;SDS011;1311;47.966;7.958;2024-03-08T06:59:06;14.80;;;8.10;;
2602;SDS011;1311;47.966;7.958;2024-03-08T07:01:35;13.23;;;6.97;;
2602;SDS011;1311;47.966;7.958;2024-03-08T07:04:03;16.40;;;8.10;;
2602;SDS011;1311;47.966;7.958;2024-03-08T07:06:31;17.30;;;9.83;;
2602;SDS011;1311;47.966;7.958;2024-03-08T07:08:59;20.87;;;9.87;;
2602;SDS011;1311;47.966;7.958;2024-03-08T07:11:27;14.40;;;9.07;;
2602;SDS011;1311;47.966;7.958;2024-03-08T07:13:54;14.43;;;8.57;;
2602;SDS011;1311;47.966;7.958;2024-03-08T07:16:20;13.43;;;7.23;;
2602;SDS011;1311;47.966;7.958;2024-03-08T07:18:47;10.80;;;6.20;;
2602;SDS011;1311;47.966;7.958;2024-03-08T07:21:17;11.73;;;6.60;;
2602;SDS011;1311;47.966;7.958;2024-03-08T07:23:44;14.13;;;7.07;;
2602;SDS011;1311;47.966;7.958;2024-03-08T07:26:29;12.53;;;6.57;;
2602;SDS011;1311;47.966;7.958;2024-03-08T07:28:56;9.80;;;6.23;;
2602;SDS011;1311;47.966;7.958;2024-03-08T07:31:25;8.27;;;5.77;;
2602;SDS011;1311;47.966;7.958;2024-03-08T07:34:03;12.07;;;7.90;;
2602;SDS011;1311;47.966;7.958;2024-03-08T07:36:32;16.03;;;8.17;;
2602;SDS011;1311;47.966;7.958;2024-03-08T07:38:59;13.00;;;7.63;;
2602;SDS011;1311;47.966;7.958;2024-03-08T07:41:26;12.13;;;7.57;;
2602;SDS011;1311;47.966;7.958;2024-03-08T07:43:55;13.20;;;7.70;;
2602;SDS011;1311;47.966;7.958;2024-03-08T07:46:21;15.73;;;7.63;;
2602;SDS011;1311;47.966;7.958;2024-03-08T07:48:48;16.90;;;8.17;;
2602;SDS011;1311;47.966;7.958;2024-03-08T07:51:15;13.30;;;7.20;;
2602;SDS011;1311;47.966;7.958;2024-03-08T07:53:42;25.40;;;9.00;;
2602;SDS011;1311;47.966;7.958;2024-03-08T07:56:10;13.80;;;8.20;;
2602;SDS011;1311;47.966;7.958;2024-03-08T07:58:39;16.40;;;9.23;;
2602;SDS011;1311;47.966;7.958;2024-03-08T08:01:06;12.20;;;6.87;;
2602;SDS011;1311;47.966;7.958;2024-03-08T08:03:33;10.43;;;6.20;;
2602;SDS011;1311;47.966;7.958;2024-03-08T08:06:03;9.93;;;6.27;;
2602;SDS011;1311;47.966;7.958;2024-03-08T08:08:30;8.27;;;5.40;;
2602;SDS011;1311;47.966;7.958;2024-03-08T08:10:57;8.17;;;5.70;;
2602;SDS011;1311;47.966;7.958;2024-03-08T08:13:24;8.13;;;5.20;;
2602;SDS011;1311;47.966;7.958;2024-03-08T08:15:54;8.90;;;5.63;;
2602;SDS011;1311;47.966;7.958;2024-03-08T08:18:21;9.93;;;6.07;;
2602;SDS011;1311;47.966;7.958;2024-03-08T08:20:50;8.57;;;6.13;;
2602;SDS011;1311;47.966;7.958;2024-03-08T08:23:17;8.77;;;6.10;;
2602;SDS011;1311;47.966;7.958;2024-03-08T08:25:44;11.00;;;6.93;;
2602;SDS011;1311;47.966;7.958;2024-03-08T08:28:11;15.03;;;6.40;;
2602;SDS011;1311;47.966;7.958;2024-03-08T08:30:38;9.40;;;6.10;;
2602;SDS011;1311;47.966;7.958;2024-03-08T08:33:06;9.50;;;5.43;;
2602;SDS011;1311;47.966;7.958;2024-03-08T08:35:33;10.40;;;6.07;;
2602;SDS011;1311;47.966;7.958;2024-03-08T08:38:00;8.23;;;5.50;;
2602;SDS011;1311;47.966;7.958;2024-03-08T08:40:28;11.17;;;7.30;;
2602;SDS011;1311;47.966;7.958;2024-03-08T08:42:56;11.30;;;7.37;;
2602;SDS011;1311;47.966;7.958;2024-03-08T08:45:23;10.47;;;7.03;;
2602;SDS011;1311;47.966;7.958;2024-03-08T08:47:50;12.20;;;7.40;;
2602;SDS011;1311;47.966;7.958;2024-03-08T08:50:18;13.50;;;8.03;;
2602;SDS011;1311;47.966;7.958;2024-03-08T08:52:48;11.50;;;7.17;;
2602;SDS011;1311;47.966;7.958;2024-03-08T08:55:15;11.03;;;7.30;;
2602;SDS011;1311;47.966;7.958;2024-03-08T08:57:45;10.70;;;6.67;;
2602;SDS011;1311;47.966;7.958;2024-03-08T09:00:12;11.93;;;7.27;;
2602;SDS011;1311;47.966;7.958;2024-03-08T09:02:40;13.07;;;7.73;;
2602;SDS011;1311;47.966;7.958;2024-03-08T09:05:07;14.57;;;8.67;;
2602;SDS011;1311;47.966;7.958;2024-03-08T09:07:35;12.83;;;8.20;;
2602;SDS011;1311;47.966;7.958;2024-03-08T09:10:03;14.50;;;8.93;;
2602;SDS011;1311;47.966;7.958;2024-03-08T09:12:30;13.87;;;7.90;;
2602;SDS011;1311;47.966;7.958;2024-03-08T09:14:58;15.83;;;9.47;;
2602;SDS011;1311;47.966;7.958;2024-03-08T09:17:24;13.63;;;8.00;;
2602;SDS011;1311;47.966;7.958;2024-03-08T09:19:51;10.90;;;7.50;;
2602;SDS011;1311;47.966;7.958;2024-03-08T09:22:19;15.20;;;8.83;;
2602;SDS011;1311;47.966;7.958;2024-03-08T09:24:47;11.93;;;8.63;;
2602;SDS011;1311;47.966;7.958;2024-03-08T09:27:14;12.70;;;8.53;;
2602;SDS011;1311;47.966;7.958;2024-03-08T09:29:41;13.03;;;8.63;;
2602;SDS011;1311;47.966;7.958;2024-03-08T09:32:09;14.47;;;9.30;;
2602;SDS011;1311;47.966;7.958;2024-03-08T09:34:36;16.70;;;9.63;;
2602;SDS011;1311;47.966;7.958;2024-03-08T09:37:03;17.00;;;9.73;;
2602;SDS011;1311;47.966;7.958;2024-03-08T09:39:30;14.57;;;9.10;;
2602;SDS011;1311;47.966;7.958;2024-03-08T09:41:59;16.07;;;8.63;;
2602;SDS011;1311;47.966;7.958;2024-03-08T09:44:27;12.87;;;8.27;;
2602;SDS011;1311;47.966;7.958;2024-03-08T09:46:54;14.60;;;9.10;;
2602;SDS011;1311;47.966;7.958;2024-03-08T09:49:21;13.43;;;8.20;;
2602;SDS011;1311;47.966;7.958;2024-03-08T09:51:47;12.60;;;8.30;;
2602;SDS011;1311;47.966;7.958;2024-03-08T09:54:16;12.63;;;8.47;;
2602;SDS011;1311;47.966;7.958;2024-03-08T09:56:45;12.10;;;8.10;;
2602;SDS011;1311;47.966;7.958;2024-03-08T09:59:16;13.10;;;7.90;;
2602;SDS011;1311;47.966;7.958;2024-03-08T10:02:06;12.57;;;8.20;;
2602;SDS011;1311;47.966;7.958;2024-03-08T10:04:39;12.27;;;8.37;;
2602;SDS011;1311;47.966;7.958;2024-03-08T10:07:07;12.57;;;7.70;;
2602;SDS011;1311;47.966;7.958;2024-03-08T10:09:34;12.17;;;7.70;;
2602;SDS011;1311;47.966;7.958;2024-03-08T10:12:00;12.23;;;8.57;;
2602;SDS011;1311;47.966;7.958;2024-03-08T10:14:29;14.43;;;9.00;;
2602;SDS011;1311;47.966;7.958;2024-03-08T10:16:57;13.30;;;9.07;;
2602;SDS011;1311;47.966;7.958;2024-03-08T10:19:25;12.63;;;8.33;;
2602;SDS011;1311;47.966;7.958;2024-03-08T10:21:52;14.37;;;9.10;;
2602;SDS011;1311;47.966;7.958;2024-03-08T10:24:21;14.40;;;8.80;;
2602;SDS011;1311;47.966;7.958;2024-03-08T10:26:51;15.20;;;9.13;;
2602;SDS011;1311;47.966;7.958;2024-03-08T10:29:18;15.23;;;9.33;;
2602;SDS011;1311;47.966;7.958;2024-03-08T10:31:46;20.33;;;10.10;;
2602;SDS011;1311;47.966;7.958;2024-03-08T10:34:15;13.97;;;9.63;;
2602;SDS011;1311;47.966;7.958;2024-03-08T10:36:41;16.07;;;10.20;;
2602;SDS011;1311;47.966;7.958;2024-03-08T10:39:09;18.40;;;10.30;;
2602;SDS011;1311;47.966;7.958;2024-03-08T10:41:44;15.67;;;10.50;;
2602;SDS011;1311;47.966;7.958;2024-03-08T10:44:15;15.80;;;11.03;;
2602;SDS011;1311;47.966;7.958;2024-03-08T10:46:57;17.87;;;11.13;;
2602;SDS011;1311;47.966;7.958;2024-03-08T10:49:30;12.87;;;9.03;;
2602;SDS011;1311;47.966;7.958;2024-03-08T10:52:00;14.87;;;8.57;;
2602;SDS011;1311;47.966;7.958;2024-03-08T10:54:29;15.70;;;10.47;;
2602;SDS011;1311;47.966;7.958;2024-03-08T10:56:58;14.80;;;10.03;;
2602;SDS011;1311;47.966;7.958;2024-03-08T10:59:26;17.20;;;10.70;;
2602;SDS011;1311;47.966;7.958;2024-03-08T11:01:53;13.73;;;9.90;;
2602;SDS011;1311;47.966;7.958;2024-03-08T11:04:21;14.77;;;10.60;;
2602;SDS011;1311;47.966;7.958;2024-03-08T11:06:49;14.23;;;9.80;;
2602;SDS011;1311;47.966;7.958;2024-03-08T11:09:30;19.07;;;11.20;;
2602;SDS011;1311;47.966;7.958;2024-03-08T11:14:47;12.67;;;8.80;;
2602;SDS011;1311;47.966;7.958;2024-03-08T11:17:17;13.60;;;10.33;;
2602;SDS011;1311;47.966;7.958;2024-03-08T11:19:48;13.90;;;9.90;;
2602;SDS011;1311;47.966;7.958;2024-03-08T11:22:20;14.40;;;9.90;;
2602;SDS011;1311;47.966;7.958;2024-03-08T11:24:49;14.53;;;10.20;;
2602;SDS011;1311;47.966;7.958;2024-03-08T11:27:15;15.07;;;9.60;;
2602;SDS011;1311;47.966;7.958;2024-03-08T11:29:42;15.50;;;10.37;;
2602;SDS011;1311;47.966;7.958;2024-03-08T11:32:09;14.10;;;10.10;;
2602;SDS011;1311;47.966;7.958;2024-03-08T11:34:39;14.40;;;10.40;;
2602;SDS011;1311;47.966;7.958;2024-03-08T11:37:10;14.33;;;9.90;;
2602;SDS011;1311;47.966;7.958;2024-03-08T11:39:39;11.70;;;8.63;;
2602;SDS011;1311;47.966;7.958;2024-03-08T11:42:06;12.50;;;9.57;;
2602;SDS011;1311;47.966;7.958;2024-03-08T11:44:33;14.33;;;10.87;;
2602;SDS011;1311;47.966;7.958;2024-03-08T11:47:01;13.47;;;9.57;;
2602;SDS011;1311;47.966;7.958;2024-03-08T11:49:29;15.00;;;9.80;;
2602;SDS011;1311;47.966;7.958;2024-03-08T11:51:59;13.80;;;9.63;;
2602;SDS011;1311;47.966;7.958;2024-03-08T11:54:26;13.40;;;9.90;;
2602;SDS011;1311;47.966;7.958;2024-03-08T11:56:54;15.00;;;10.00;;
2602;SDS011;1311;47.966;7.958;2024-03-08T11:59:25;13.90;;;9.20;;
2602;SDS011;1311;47.966;7.958;2024-03-08T12:01:59;14.57;;;10.40;;
2602;SDS011;1311;47.966;7.958;2024-03-08T12:04:28;13.97;;;10.20;;
2602;SDS011;1311;47.966;7.958;2024-03-08T12:06:56;13.67;;;10.67;;
2602;SDS011;1311;47.966;7.958;2024-03-08T12:09:27;15.60;;;10.93;;
2602;SDS011;1311;47.966;7.958;2024-03-08T12:11:54;14.80;;;9.97;;
2602;SDS011;1311;47.966;7.958;2024-03-08T12:14:21;14.47;;;11.43;;
2602;SDS011;1311;47.966;7.958;2024-03-08T12:16:50;13.93;;;9.60;;
2602;SDS011;1311;47.966;7.958;2024-03-08T12:19:17;15.00;;;10.90;;
2602;SDS011;1311;47.966;7.958;2024-03-08T12:21:44;14.07;;;9.90;;
2602;SDS011;1311;47.966;7.958;2024-03-08T12:24:15;15.17;;;9.87;;
2602;SDS011;1311;47.966;7.958;2024-03-08T12:26:44;11.97;;;9.10;;
2602;SDS011;1311;47.966;7.958;2024-03-08T12:29:22;15.80;;;10.03;;
2602;SDS011;1311;47.966;7.958;2024-03-08T12:31:52;12.20;;;9.30;;
2602;SDS011;1311;47.966;7.958;2024-03-08T12:34:20;12.30;;;9.90;;
2602;SDS011;1311;47.966;7.958;2024-03-08T12:36:48;14.07;;;9.07;;
2602;SDS011;1311;47.966;7.958;2024-03-08T12:39:18;12.30;;;9.70;;
2602;SDS011;1311;47.966;7.958;2024-03-08T12:41:47;13.70;;;9.67;;
2602;SDS011;1311;47.966;7.958;2024-03-08T12:44:16;14.10;;;10.07;;
2602;SDS011;1311;47.966;7.958;2024-03-08T12:46:43;15.03;;;9.90;;
2602;SDS011;1311;47.966;7.958;2024-03-08T12:49:11;13.07;;;11.17;;
2602;SDS011;1311;47.966;7.958;2024-03-08T12:51:37;13.20;;;9.67;;
2602;SDS011;1311;47.966;7.958;2024-03-08T12:54:05;15.37;;;11.17;;
2602;SDS011;1311;47.966;7.958;2024-03-08T12:56:34;14.83;;;10.63;;
2602;SDS011;1311;47.966;7.958;2024-03-08T12:59:02;26.23;;;11.50;;
2602;SDS011;1311;47.966;7.958;2024-03-08T13:01:30;12.40;;;10.40;;
2602;SDS011;1311;47.966;7.958;2024-03-08T13:03:58;11.43;;;8.27;;
2602;SDS011;1311;47.966;7.958;2024-03-08T13:06:25;13.03;;;9.60;;
2602;SDS011;1311;47.966;7.958;2024-03-08T13:08:53;14.93;;;10.27;;
2602;SDS011;1311;47.966;7.958;2024-03-08T13:11:23;14.80;;;10.77;;
2602;SDS011;1311;47.966;7.958;2024-03-08T13:13:52;15.90;;;11.20;;
2602;SDS011;1311;47.966;7.958;2024-03-08T13:16:19;15.77;;;10.80;;
2602;SDS011;1311;47.966;7.958;2024-03-08T13:18:46;13.60;;;10.63;;
2602;SDS011;1311;47.966;7.958;2024-03-08T13:21:17;16.23;;;11.03;;
2602;SDS011;1311;47.966;7.958;2024-03-08T13:23:45;14.73;;;10.93;;
2602;SDS011;1311;47.966;7.958;2024-03-08T13:26:14;16.67;;;11.50;;
2602;SDS011;1311;47.966;7.958;2024-03-08T13:28:42;16.73;;;10.93;;
2602;SDS011;1311;47.966;7.958;2024-03-08T13:31:10;14.43;;;10.20;;
2602;SDS011;1311;47.966;7.958;2024-03-08T13:33:37;15.07;;;11.10;;
2602;SDS011;1311;47.966;7.958;2024-03-08T13:36:06;16.37;;;12.13;;
2602;SDS011;1311;47.966;7.958;2024-03-08T13:38:40;14.63;;;11.70;;
2602;SDS011;1311;47.966;7.958;2024-03-08T13:41:08;16.30;;;12.80;;
2602;SDS011;1311;47.966;7.958;2024-03-08T13:43:36;17.17;;;12.17;;
2602;SDS011;1311;47.966;7.958;2024-03-08T13:46:03;16.47;;;12.37;;
2602;SDS011;1311;47.966;7.958;2024-03-08T13:48:33;15.13;;;11.23;;
2602;SDS011;1311;47.966;7.958;2024-03-08T13:51:00;16.60;;;12.20;;
2602;SDS011;1311;47.966;7.958;2024-03-08T13:53:26;20.63;;;14.47;;
2602;SDS011;1311;47.966;7.958;2024-03-08T13:55:53;16.27;;;12.10;;
2602;SDS011;1311;47.966;7.958;2024-03-08T13:58:21;19.30;;;12.47;;
2602;SDS011;1311;47.966;7.958;2024-03-08T14:00:48;15.97;;;12.03;;
2602;SDS011;1311;47.966;7.958;2024-03-08T14:03:16;16.80;;;12.30;;
2602;SDS011;1311;47.966;7.958;2024-03-08T14:05:44;16.77;;;12.27;;
2602;SDS011;1311;47.966;7.958;2024-03-08T14:08:12;17.53;;;12.50;;
2602;SDS011;1311;47.966;7.958;2024-03-08T14:10:39;18.80;;;12.67;;
2602;SDS011;1311;47.966;7.958;2024-03-08T14:13:07;18.17;;;14.00;;
2602;SDS011;1311;47.966;7.958;2024-03-08T14:15:34;16.53;;;12.60;;
2602;SDS011;1311;47.966;7.958;2024-03-08T14:18:01;17.87;;;12.70;;
2602;SDS011;1311;47.966;7.958;2024-03-08T14:20:27;18.17;;;12.97;;
2602;SDS011;1311;47.966;7.958;2024-03-08T14:22:57;18.67;;;12.77;;
2602;SDS011;1311;47.966;7.958;2024-03-08T14:25:24;15.57;;;12.97;;
2602;SDS011;1311;47.966;7.958;2024-03-08T14:27:51;16.83;;;13.00;;
2602;SDS011;1311;47.966;7.958;2024-03-08T14:30:19;16.70;;;12.80;;
2602;SDS011;1311;47.966;7.958;2024-03-08T14:32:59;19.20;;;13.93;;
2602;SDS011;1311;47.966;7.958;2024-03-08T14:35:26;18.27;;;12.57;;
2602;SDS011;1311;47.966;7.958;2024-03-08T14:37:54;21.10;;;14.60;;
2602;SDS011;1311;47.966;7.958;2024-03-08T14:40:23;17.00;;;12.47;;
2602;SDS011;1311;47.966;7.958;2024-03-08T14:42:51;16.47;;;12.70;;
2602;SDS011;1311;47.966;7.958;2024-03-08T14:45:22;17.63;;;13.30;;
2602;SDS011;1311;47.966;7.958;2024-03-08T14:47:49;17.63;;;13.00;;
2602;SDS011;1311;47.966;7.958;2024-03-08T14:50:16;18.80;;;13.33;;
2602;SDS011;1311;47.966;7.958;2024-03-08T14:52:43;19.27;;;13.87;;
2602;SDS011;1311;47.966;7.958;2024-03-08T14:55:12;17.90;;;13.17;;
2602;SDS011;1311;47.966;7.958;2024-03-08T14:57:40;17.23;;;11.90;;
2602;SDS011;1311;47.966;7.958;2024-03-08T15:00:07;16.27;;;12.20;;
2602;SDS011;1311;47.966;7.958;2024-03-08T15:02:42;19.33;;;13.20;;